Tiempo atmosférico en la estación meteorológica de Benamejí, Córdoba (465 m.)



Fecha
DESCASC
Temp. máxima en grados centígrados (hora)
DESCASC
Temp. mínima en grados centígrados (hora)
DESCASC
Temp. media en grados centígrados
DESCASC
Racha de viento máxima en m/sg (hora)
DESCASC
Velocidad máxima media en intervalos de 10 minutos(hora)
DESCASC
Precipitaciones diarias en mm
DESCASC
Precipitaciones de 00:00 a 06:00 en mm
DESCASC
Precipitaciones de 06:00 a 12:00 en mm
DESCASC
Precipitaciones de 12:00 a 18:00 en mm
DESCASC
Precipitaciones de 18:00 a 24:00 en mm
DESCASC
31-03-2020 15.7 (16:30) 8.9 (05:00) 12.3 12.5 (04:30) 9.17 (16:40) 9.6 5.2 3.8 0.2 0.4
30-03-2020 17.1 (16:10) 10.4 (22:30) 13.8 8.61 (17:10) 3.61 (18:00) 7 0 0 5 2
29-03-2020 18.7 (17:20) 7 (00:00) 12.9 7.5 (17:20) 4.72 (21:00) 0 0 0 0 0
28-03-2020 17.5 (16:00) 7.3 (00:00) 12.4 9.17 (16:40) 6.39 (17:30) 0 0 0 0 0
27-03-2020 16.8 (14:10) 7 (00:00) 11.9 12.5 (16:20) 7.78 (14:50) 0 0 0 0 0
26-03-2020 18.9 (16:50) 8.6 (00:00) 13.8 11.67 (17:20) 6.67 (18:40) 0 0 0 0 0
25-03-2020 13.3 (17:30) 9.1 (00:00) 11.2 10.83 (11:30) 7.78 (11:50) 0.6 0 0 0.6 0
24-03-2020 18 (17:20) 7.9 (00:00) 13 7.78 (18:30) 4.44 (18:40) 1.2 1.2 0 0 0
23-03-2020 15 (13:20) 6.1 (00:00) 10.5 10.83 (16:50) 7.5 (16:50) 9.8 0 0 7 2.8
22-03-2020 12.9 (15:10) 6.9 (07:40) 9.9 7.22 (15:40) 4.72 (15:40) 2 1 0 0 1
21-03-2020 13.3 (13:30) 7.1 (00:00) 10.2 13.89 (03:50) 7.78 (03:50) 23.8 14 0 5.2 4.6
20-03-2020 18.8 (16:20) 9.5 (00:00) 14.1 12.78 (20:20) 8.33 (21:10) 0 0 0 0 0
19-03-2020 18.1 (13:40) 10 (00:00) 14.1 10.28 (16:20) 7.78 (16:20) 0 0 0 0 0
18-03-2020 21.1 (15:40) 9.1 (00:00) 15.1 9.72 (17:00) 6.67 (16:10) 0 0 0 0 0
17-03-2020 16.1 (14:50) 5.7 (00:00) 10.9 10.83 (13:20) 7.22 (13:20) 0.4 0.2 0 0.2 0
16-03-2020 13.2 (00:40) 6.2 (00:00) 9.7 13.33 (04:10) 6.39 (13:50) 0.4 0 0.2 0 0.2
15-03-2020 20.6 (16:20) 10.4 (00:00) 15.5 7.22 (13:30) 4.72 (14:20) 0 0 0 0 0
14-03-2020 22.8 (16:40) 10 (00:00) 16.4 5.83 (16:00) 4.17 (23:50) 0 0 0 0 0
13-03-2020 21.5 (16:40) 10.5 (07:50) 16 6.39 (17:10) 3.61 (17:10) 0 0 0 0 0
12-03-2020 28.5 (16:00) 14 (00:00) 21.3 8.33 (15:40) 5 (15:30) 0 0 0 0 0
11-03-2020 28.2 (15:00) 11 (00:00) 19.6 10.28 (14:20) 6.67 (14:10) 0 0 0 0 0
10-03-2020 24.6 (14:30) 8.8 (00:00) 16.7 7.78 (15:20) 5 (22:10) 0 0 0 0 0
09-03-2020 20.2 (16:20) 7.3 (00:00) 13.8 7.22 (18:30) 4.44 (18:30) 0 0 0 0 0
08-03-2020 22.2 (15:40) 5.3 (00:00) 13.8 6.11 (15:10) 3.89 (15:50) 0 0 0 0 0
07-03-2020 17.7 (16:00) 4.8 (00:00) 11.3 8.61 (17:10) 5.28 (17:20) 0 0 0 0 0
06-03-2020 15.7 (17:10) 4.7 (00:00) 10.2 11.39 (17:30) 6.67 (14:00) 0 0 0 0 0
05-03-2020 15.7 (13:20) 7.1 (00:00) 11.4 10.28 (14:10) 6.39 (14:40) 0 0 0 0 0
04-03-2020 18.8 (16:50) 12 (00:00) 15.4 8.33 (13:50) 4.72 (14:10) 0 0 0 0 0

Gráficas

Temp. máximas Temp. mínimas Temp. medias Precipitaciones Rachas de viento máximas Velocidades máximas media en intervalos de 10 minutos

Datos horarios

Fecha y hora oficial Temperatura (ºC) Velocidad del viento (km/h) Dirección del viento Racha (km/h) Dirección de racha Precipitación (mm) Presión (hPa) Tendencia (hPa) Humedad (%)
2020-04-02 23:00:00 8.2 3 Este 9 Noroeste 0 -- -- 85
2020-04-02 22:00:00 8.3 4 Noroeste 15 Noroeste 0 -- -- 84
2020-04-02 21:00:00 9 9 Noroeste 19 Noroeste 0 -- -- 81
2020-04-02 20:00:00 10.4 12 Noroeste 29 Noroeste 0 -- -- 75
2020-04-02 19:00:00 10.4 15 Noroeste 26 Noroeste 0 -- -- 79
2020-04-02 18:00:00 9.5 10 Nordeste 28 Oeste 1.2 -- -- 92
2020-04-02 17:00:00 8.5 15 Oeste 29 Oeste 1 -- -- 88
2020-04-02 16:00:00 7.9 21 Sudoeste 32 Sudoeste 16.2 -- -- 90
2020-04-02 15:00:00 10.4 19 Sudoeste 28 Sudoeste 0 -- -- 76
2020-04-02 14:00:00 10.6 6 Noroeste 15 Noroeste 0.2 -- -- 70
2020-04-02 13:00:00 10.1 4 Oeste 10 Este 0 -- -- 74
2020-04-02 12:00:00 9.2 5 Norte 12 Este 0 -- -- 77
2020-04-02 11:00:00 7.9 4 Este 17 Sudeste 0 -- -- 83
2020-04-02 10:00:00 6 10 Sudeste 18 Este 0 -- -- 92
2020-04-02 09:00:00 5.7 13 Sudeste 33 Sudoeste 1.2 -- -- 92
2020-04-02 08:00:00 6.1 24 Sudoeste 40 Sudoeste 2.8 -- -- 91
2020-04-02 07:00:00 8 5 Noroeste 8 Este 1.8 -- -- 93
2020-04-02 06:00:00 8.3 3 Este 10 Este 0.2 -- -- 90
2020-04-02 05:00:00 8.4 4 Este 12 Sudoeste 0.4 -- -- 89
2020-04-02 04:00:00 9 3 Sur 10 Sudeste 0.2 -- -- 79
2020-04-02 03:00:00 9.3 7 Sudeste 14 Sudeste 0 -- -- 71
2020-04-02 02:00:00 8.8 9 Sudeste 14 Sudeste 0 -- -- 76
2020-04-02 01:00:00 8.7 10 Sudeste 13 Sudeste 0 -- -- 79
2020-04-02 00:00:00 9.1 9 Sudeste 12 Sudeste 0 -- -- 78
2020-04-01 23:00:00 8.8 3 Este 10 Este 0 -- -- 85
2020-04-01 22:00:00 8.6 6 Nordeste 9 Este 0 -- -- 86
2020-04-01 21:00:00 9.3 8 Noroeste 41 Oeste 0 -- -- 80
2020-04-01 20:00:00 11.5 12 Noroeste 33 Oeste 0 -- -- 66
2020-04-01 19:00:00 12.5 24 Oeste 36 Oeste 0 -- -- 66
2020-04-01 18:00:00 14.8 19 Oeste 30 Sudoeste 0 -- -- 45
2020-04-01 17:00:00 14.6 16 Oeste 29 Oeste 0 -- -- 57
2020-04-01 16:00:00 14.6 19 Oeste 30 Sudoeste 0 -- -- 58
2020-04-01 15:00:00 13.9 10 Oeste 24 Oeste 0.2 -- -- 67
2020-04-01 14:00:00 13 10 Oeste 23 Oeste 0 -- -- 74
2020-04-01 13:00:00 11.8 12 Oeste 19 Oeste 0 -- -- 79
2020-04-01 12:00:00 10.5 9 Oeste 17 Oeste 0 -- -- 91
2020-04-01 11:00:00 10.2 6 Noroeste 11 Norte 0.2 -- -- 94
2020-04-01 10:00:00 9.6 2 Oeste 8 Oeste 0.2 -- -- 94
2020-04-01 09:00:00 9.5 4 Norte 10 Nordeste 0 -- -- 94
2020-04-01 08:00:00 9.4 5 Nordeste 9 Norte 0.2 -- -- 95
2020-04-01 07:00:00 9.8 4 Norte 8 Nordeste 0 -- -- 95
2020-04-01 06:00:00 9.9 5 Nordeste 9 Nordeste 0 -- -- 94
2020-04-01 05:00:00 10 3 Este 9 Noroeste 0 -- -- 93
2020-04-01 04:00:00 10 3 Nordeste 16 Oeste 0 -- -- 92
2020-04-01 03:00:00 10.3 9 Oeste 17 Oeste 0 -- -- 90
2020-04-01 02:00:00 10.7 7 Oeste 18 Oeste 0 -- -- 92
2020-04-01 01:00:00 10.3 11 Sur 14 Sur 0 -- -- 92
2020-04-01 00:00:00 11.3 9 Sur 18 Sur 0 -- -- 91
2020-03-31 23:00:00 11.5 10 Sur 22 Sur 0 -- -- 88
2020-03-31 22:00:00 12 18 Sur 25 Sur 0 -- -- 87
2020-03-31 21:00:00 12.1 10 Sudoeste 24 Sur 0 -- -- 83
2020-03-31 20:00:00 12.8 16 Sur 31 Sur 0 -- -- 84
2020-03-31 19:00:00 13.6 21 Sur 38 Sur 0.4 -- -- 87
2020-03-31 18:00:00 13.8 25 Sur 41 Sur 0 -- -- 84
2020-03-31 17:00:00 13.4 28 Sur 45 Sur 0 -- -- 83
2020-03-31 16:00:00 15.4 30 Sur 44 Sur 0 -- -- 73
2020-03-31 15:00:00 14.3 22 Sur 36 Sudeste 0 -- -- 81
2020-03-31 14:00:00 12.7 26 Sur 38 Sur 0.2 -- -- 86
2020-03-31 13:00:00 13.3 20 Sur 32 Sur 0 -- -- 84
2020-03-31 12:00:00 11.8 18 Sur 27 Sudeste 0.2 -- -- 90
2020-03-31 11:00:00 10.3 6 Sur 15 Oeste 1.8 -- -- 95
2020-03-31 10:00:00 9.9 9 Sudoeste 17 Sudoeste 1.4 -- -- 94
2020-03-31 09:00:00 9.7 10 Sur 23 Sur 0.2 -- -- 93
2020-03-31 08:00:00 9.5 15 Sudeste 32 Sudeste 0.2 -- -- 92
2020-03-31 07:00:00 9.5 23 Sudeste 37 Sudeste 0 -- -- 91
2020-03-31 06:00:00 8.9 7 Este 33 Sudeste 0 -- -- 90
2020-03-31 05:00:00 8.9 17 Sudeste 45 Sudeste 1.6 -- -- 92
2020-03-31 04:00:00 9.6 16 Sur 44 Sudeste 2.8 -- -- 93
2020-03-31 03:00:00 9.6 20 Sur 33 Sudeste 0.4 -- -- 89
2020-03-31 02:00:00 10.1 10 Sudeste 17 Sudeste 0.2 -- -- 91
2020-03-31 01:00:00 10.4 5 Este 9 Este 0.2 -- -- 95
2020-03-31 00:00:00 10.4 3 Este 8 Este 0.6 -- -- 95
2020-03-30 23:00:00 10.4 3 Nordeste 12 Norte 0 -- -- 94
2020-03-30 22:00:00 10.9 6 Norte 11 Noroeste 0.6 -- -- 94
2020-03-30 21:00:00 11.3 5 Norte 14 Noroeste 0 -- -- 93
2020-03-30 20:00:00 12 7 Este 10 Este 0.2 -- -- 92
2020-03-30 19:00:00 11.7 7 Oeste 22 Oeste 0.6 -- -- 91
2020-03-30 18:00:00 12 13 Oeste 31 Oeste 2 -- -- 89
2020-03-30 17:00:00 15.1 11 Sudoeste 22 Oeste 3 -- -- 64
2020-03-30 16:00:00 17 8 Oeste 18 Sudoeste 0 -- -- 50
2020-03-30 15:00:00 16.5 5 Sur 18 Oeste 0 -- -- 50
2020-03-30 14:00:00 15.8 3 Oeste 11 Oeste 0 -- -- 59
2020-03-30 13:00:00 14.2 6 Norte 13 Norte 0 -- -- 67
2020-03-30 12:00:00 13.1 3 Nordeste 9 Noroeste 0 -- -- 75
2020-03-30 11:00:00 11.6 3 Norte 7 Norte 0 -- -- 86
2020-03-30 10:00:00 11.1 4 Nordeste 10 Nordeste 0 -- -- 90
2020-03-30 09:00:00 10.9 4 Nordeste 8 Nordeste 0 -- -- 91
2020-03-30 08:00:00 10.8 3 Norte 9 Norte 0 -- -- 91
2020-03-30 07:00:00 10.6 2 Nordeste 6 Nordeste 0 -- -- 88
2020-03-30 06:00:00 10.8 4 Nordeste 5 Nordeste 0 -- -- 84
2020-03-30 05:00:00 11.1 3 Nordeste 5 Norte 0 -- -- 81
2020-03-30 04:00:00 11 3 Nordeste 8 Nordeste 0 -- -- 76
2020-03-30 03:00:00 11.1 3 Este 8 Nordeste 0 -- -- 71
2020-03-30 02:00:00 11.6 5 Nordeste 6 Nordeste 0 -- -- 67
2020-03-30 01:00:00 12.3 0 Calma 5 Sudoeste 0 -- -- 62
2020-03-30 00:00:00 12.5 0 Calma 17 Sur 0 -- -- 57
2020-03-29 23:00:00 13.2 13 Sur 17 Sur 0 -- -- 55
2020-03-29 22:00:00 13.6 14 Sur 22 Sur 0 -- -- 54
2020-03-29 21:00:00 14.3 17 Sur 23 Sur 0 -- -- 52
2020-03-29 20:00:00 16.5 4 Sudoeste 14 Oeste 0 -- -- 40
2020-03-29 19:00:00 17.1 6 Oeste 11 Oeste 0 -- -- 33
2020-03-29 18:00:00 17.6 8 Oeste 27 Oeste 0 -- -- 31
2020-03-29 17:00:00 18.3 9 Oeste 15 Noroeste 0 -- -- 30
2020-03-29 16:00:00 18.2 3 Oeste 20 Sur 0 -- -- 31
2020-03-29 15:00:00 18.5 5 Sudeste 16 Oeste 0 -- -- 32
2020-03-29 14:00:00 17.7 5 Sur 15 Norte 0 -- -- 35
2020-03-29 13:00:00 16 5 Norte 13 Norte 0 -- -- 56
2020-03-29 12:00:00 14.7 4 Norte 10 Sudeste 0 -- -- 64
2020-03-29 11:00:00 13.2 4 Este 8 Nordeste 0 -- -- 70
2020-03-29 10:00:00 10.4 0 Calma 4 Nordeste 0 -- -- 84
2020-03-29 09:00:00 7 2 Sur 12 Este 0 -- -- 91
2020-03-29 08:00:00 7.2 10 Nordeste 11 Este 0 -- -- 92
2020-03-29 07:00:00 7.6 8 Este 12 Nordeste 0 -- -- 91
2020-03-29 06:00:00 7.9 4 Este 9 Nordeste 0 -- -- 90
2020-03-29 05:00:00 8.6 5 Este 8 Este 0 -- -- 87
2020-03-29 03:00:00 9 5 Este 12 Sur 0 -- -- 83
2020-03-29 01:00:00 9.1 9 Sur 14 Sur 0 -- -- 84
2020-03-29 00:00:00 8.6 9 Sur 17 Sur 0 -- -- 87
2020-03-28 23:00:00 8.8 12 Sur 20 Sur 0 -- -- 85
2020-03-28 22:00:00 9.4 15 Sur 22 Sur 0 -- -- 83
2020-03-28 21:00:00 10.1 15 Sur 27 Sudoeste 0 -- -- 80
2020-03-28 20:00:00 11.3 21 Sur 32 Sur 0 -- -- 72
2020-03-28 19:00:00 13 22 Sudoeste 32 Sudoeste 0 -- -- 66
2020-03-28 18:00:00 14.9 22 Sudoeste 33 Sudoeste 0 -- -- 60
2020-03-28 17:00:00 16.3 23 Sudoeste 33 Sur 0 -- -- 58
2020-03-28 16:00:00 17.5 18 Sur 30 Sudoeste 0 -- -- 54
2020-03-28 15:00:00 16.8 18 Sur 32 Sur 0 -- -- 58
2020-03-28 14:00:00 16.8 14 Sur 28 Sur 0 -- -- 57
2020-03-28 13:00:00 15.9 18 Sur 30 Sur 0 -- -- 60
2020-03-28 12:00:00 14.3 13 Sur 22 Sudoeste 0 -- -- 66
2020-03-28 11:00:00 12.8 2 Noroeste 7 Nordeste 0 -- -- 72
2020-03-28 10:00:00 11.7 4 Nordeste 9 Nordeste 0 -- -- 77
2020-03-28 09:00:00 9.8 2 Este 12 Nordeste 0 -- -- 88
2020-03-28 08:00:00 7.8 3 Este 11 Nordeste 0 -- -- 94
2020-03-28 07:00:00 7.4 4 Nordeste 9 Nordeste 0 -- -- 93
2020-03-28 06:00:00 7.4 3 Este 9 Nordeste 0 -- -- 91
2020-03-28 05:00:00 8.2 4 Este 6 Norte 0 -- -- 87
2020-03-28 04:00:00 8.3 3 Este 6 Nordeste 0 -- -- 87
2020-03-28 03:00:00 8.4 5 Nordeste -- -- 0 -- -- 86
2020-03-28 02:00:00 9.3 4 Nordeste 5 Nordeste 0 -- -- 81
2020-03-28 01:00:00 10.1 2 Sudoeste 7 Oeste 0 -- -- 78
2020-03-28 00:00:00 10.3 0 Calma 6 Norte 0 -- -- 82
2020-03-27 23:00:00 10.2 4 Noroeste 13 Sudoeste 0 -- -- 78
2020-03-27 22:00:00 10.3 10 Sudoeste 20 Sur 0 -- -- 76
2020-03-27 21:00:00 10.5 17 Sur 23 Sur 0 -- -- 73
2020-03-27 20:00:00 11.6 18 Sur 28 Sudoeste 0 -- -- 67
2020-03-27 19:00:00 13.3 19 Sudoeste 30 Sur 0 -- -- 58
2020-03-27 18:00:00 14.1 25 Sur 42 Sur 0 -- -- 53
2020-03-27 17:00:00 15.5 26 Sur 45 Sur 0 -- -- 50
2020-03-27 16:00:00 16.3 25 Sur 39 Sur 0 -- -- 46
2020-03-27 15:00:00 16.6 27 Sur 40 Sudoeste 0 -- -- 43
2020-03-27 14:00:00 16.3 22 Sudoeste 42 Sur 0 -- -- 45
2020-03-27 13:00:00 16.1 27 Sur 41 Sur 0 -- -- 41
2020-03-27 12:00:00 15.3 26 Sur 41 Sur 0 -- -- 45
2020-03-27 11:00:00 14.3 19 Sur 31 Sur 0 -- -- 53
2020-03-27 10:00:00 13.4 14 Sur 22 Sur 0 -- -- 60
2020-03-27 09:00:00 10.9 15 Sur 22 Sur 0 -- -- 77
2020-03-27 08:00:00 7.5 7 Sur 14 Sur 0 -- -- 91
2020-03-27 07:00:00 7.3 13 Sur 17 Sur 0 -- -- 90
2020-03-27 06:00:00 7.9 14 Sur 24 Sur 0 -- -- 88
2020-03-27 05:00:00 7.7 17 Sur 20 Sur 0 -- -- 88
2020-03-27 04:00:00 8.9 15 Sur 21 Sur 0 -- -- 83
2020-03-27 03:00:00 9.5 13 Sur 18 Sur 0 -- -- 81
2020-03-27 02:00:00 9.5 11 Sur 15 Sur 0 -- -- 79
2020-03-27 01:00:00 10.8 6 Sudeste 11 Sudeste 0 -- -- 69
2020-03-27 00:00:00 11.9 8 Sudoeste 24 Oeste 0 -- -- 64
2020-03-26 23:00:00 12.6 16 Oeste 34 Sudoeste 0 -- -- 62
2020-03-26 22:00:00 12.9 18 Sudoeste 32 Oeste 0 -- -- 62
2020-03-26 21:00:00 13.7 19 Sudoeste 28 Oeste 0 -- -- 61
2020-03-26 20:00:00 14.7 15 Sudoeste 35 Sudoeste 0 -- -- 54
2020-03-26 19:00:00 17.1 20 Oeste 39 Oeste 0 -- -- 38
2020-03-26 18:00:00 17.8 20 Oeste 42 Oeste 0 -- -- 36
2020-03-26 17:00:00 18.7 21 Oeste 35 Oeste 0 -- -- 38
2020-03-26 16:00:00 17.9 20 Oeste 34 Oeste 0 -- -- 41
2020-03-26 15:00:00 17.9 17 Noroeste 32 Oeste 0 -- -- 51
2020-03-26 14:00:00 17.2 15 Oeste 27 Oeste 0 -- -- 54
2020-03-26 13:00:00 15.7 12 Oeste 20 Noroeste 0 -- -- 62
2020-03-26 12:00:00 14.5 11 Oeste 23 Oeste 0 -- -- 68
2020-03-26 11:00:00 12.8 12 Noroeste 19 Oeste 0 -- -- 77
2020-03-26 10:00:00 11.3 4 Norte 10 Noroeste 0 -- -- 88
2020-03-26 09:00:00 10.6 0 Calma 5 Nordeste 0 -- -- 90
2020-03-26 08:00:00 10.4 4 Noroeste 8 Sudoeste 0 -- -- 91
2020-03-26 07:00:00 9.8 6 Sudoeste 17 Sur 0 -- -- 90
2020-03-26 06:00:00 9.7 4 Sur 20 Sur 0 -- -- 89
2020-03-26 05:00:00 9.6 14 Sur 21 Sur 0 -- -- 89
2020-03-26 04:00:00 9.6 12 Sur 15 Sudoeste 0 -- -- 90
2020-03-26 03:00:00 9.3 6 Sur 16 Sur 0 -- -- 90
2020-03-26 02:00:00 9.4 12 Sur 15 Sur 0 -- -- 89
2020-03-26 01:00:00 8.7 9 Sur 23 Sur 0 -- -- 90
2020-03-26 00:00:00 9.3 17 Sur 23 Sur 0 -- -- 85
2020-03-25 23:00:00 9.9 15 Sudoeste 27 Sur 0 -- -- 87
2020-03-25 22:00:00 9.5 18 Sur 25 Sur 0 -- -- 87
2020-03-25 21:00:00 9.4 18 Sur 24 Sur 0 -- -- 85
2020-03-25 20:00:00 10.3 17 Sur 26 Sur 0 -- -- 81
2020-03-25 19:00:00 10.9 18 Sur 28 Sur 0 -- -- 77
2020-03-25 18:00:00 12.9 18 Sur 29 Sur 0 -- -- 71
2020-03-25 17:00:00 13.1 21 Sur 31 Sur 0 -- -- 72
2020-03-25 16:00:00 12.5 22 Sur 36 Sur 0 -- -- 73
2020-03-25 15:00:00 11 25 Sur 34 Sur 0 -- -- 82
2020-03-25 14:00:00 9.9 24 Sur 35 Sur 0 -- -- 87
2020-03-25 13:00:00 9.1 27 Sur 38 Sur 0.6 -- -- 92
2020-03-25 12:00:00 10.6 24 Sur 39 Sur 0 -- -- 79
2020-03-25 11:00:00 10.5 23 Sur 33 Sudoeste 0 -- -- 82
2020-03-25 10:00:00 11.1 7 Sudoeste 12 Oeste 0 -- -- 89
2020-03-25 09:00:00 10.7 7 Oeste 13 Sudoeste 0 -- -- 90
2020-03-25 08:00:00 9.9 4 Sudoeste 9 Sudoeste 0 -- -- 83
2020-03-25 07:00:00 9.7 0 Calma 3 Nordeste 0 -- -- 81
2020-03-25 06:00:00 9.9 3 Nordeste 6 Norte 0 -- -- 81
2020-03-25 05:00:00 10.3 2 Este 4 Este 0 -- -- 72
2020-03-25 04:00:00 10.2 3 Sudoeste 6 Nordeste 0 -- -- 84
2020-03-25 03:00:00 10.9 2 Sudeste 12 Sudeste 0 -- -- 81
2020-03-25 02:00:00 11 8 Sudeste 15 Sudeste 0 -- -- 81
2020-03-25 01:00:00 11.2 7 Sur 11 Sur 0 -- -- 70
2020-03-25 00:00:00 11.7 3 Este 10 Nordeste 0 -- -- 60
2020-03-24 23:00:00 12 2 Nordeste 9 Este 0 -- -- 57
2020-03-24 22:00:00 11.8 5 Este 12 Este 0 -- -- 59
2020-03-24 21:00:00 12.5 8 Nordeste 19 Este 0 -- -- 56
2020-03-24 20:00:00 14 14 Nordeste 26 Nordeste 0 -- -- 50
2020-03-24 19:00:00 15.2 10 Nordeste 28 Nordeste 0 -- -- 47
2020-03-24 18:00:00 16.7 8 Nordeste 24 Nordeste 0 -- -- 45
2020-03-24 17:00:00 17.6 5 Nordeste 17 Nordeste 0 -- -- 40
2020-03-24 16:00:00 17.7 10 Nordeste 25 Nordeste 0 -- -- 51
2020-03-24 15:00:00 17.1 10 Nordeste 22 Nordeste 0 -- -- 56
2020-03-24 14:00:00 17.2 10 Nordeste 22 Nordeste 0 -- -- 58
2020-03-24 13:00:00 16.2 12 Nordeste 26 Norte 0 -- -- 60
2020-03-24 12:00:00 15.1 12 Norte 24 Nordeste 0 -- -- 66
2020-03-24 11:00:00 13 8 Norte 19 Norte 0 -- -- 74
2020-03-24 10:00:00 10.1 7 Nordeste 12 Nordeste 0 -- -- 87
2020-03-24 09:00:00 8.9 4 Norte 10 Norte 0 -- -- 96
2020-03-24 08:00:00 8.3 4 Norte 6 Noroeste 0 -- -- 96
2020-03-24 07:00:00 8 2 Noroeste 6 Noroeste 0 -- -- 95
2020-03-24 06:00:00 8 3 Oeste 6 Noroeste 0 -- -- 95
2020-03-24 05:00:00 8.3 0 Calma 6 Nordeste 0 -- -- 95
2020-03-24 04:00:00 8.4 3 Noroeste 7 Nordeste 0 -- -- 96
2020-03-24 03:00:00 8.4 2 Noroeste 4 Noroeste 0 -- -- 95
2020-03-24 02:00:00 8.7 2 Noroeste 5 Norte 0.2 -- -- 95
2020-03-24 01:00:00 8.6 2 Norte 9 Norte 1 -- -- 95
2020-03-24 00:00:00 8.4 5 Nordeste 10 Norte 0 -- -- 95
2020-03-23 23:00:00 8.4 3 Nordeste 10 Nordeste 0.6 -- -- 95
2020-03-23 22:00:00 8.4 5 Nordeste 10 Nordeste 1.4 -- -- 95
2020-03-23 21:00:00 8.5 0 Calma 6 Nordeste 0.4 -- -- 94
2020-03-23 20:00:00 8.5 3 Sur 9 Sudeste 0 -- -- 94
2020-03-23 19:00:00 8.4 5 Este 12 Nordeste 0.4 -- -- 93
2020-03-23 18:00:00 8.1 3 Este 35 Sur 4.4 -- -- 93
2020-03-23 17:00:00 8.4 26 Sur 39 Sur 2.4 -- -- 88
2020-03-23 16:00:00 10.8 17 Sur 26 Sur 0.2 -- -- 81
2020-03-23 15:00:00 13.8 10 Sudeste 20 Sudeste 0 -- -- 57
2020-03-23 14:00:00 14.2 6 Este 17 Este 0 -- -- 59
2020-03-23 13:00:00 14.4 5 Nordeste 15 Este 0 -- -- 59
2020-03-23 12:00:00 13.8 4 Este 13 Nordeste 0 -- -- 63
2020-03-23 11:00:00 12.2 4 Sudeste 10 Este 0 -- -- 70
2020-03-23 10:00:00 10.3 2 Nordeste 8 Este 0 -- -- 80
2020-03-23 09:00:00 8.3 5 Este 9 Este 0 -- -- 89
2020-03-23 08:00:00 6.3 4 Nordeste 9 Nordeste 0 -- -- 93
2020-03-23 07:00:00 6.2 6 Nordeste 10 Nordeste 0 -- -- 92
2020-03-23 06:00:00 6.2 5 Este 8 Nordeste 0 -- -- 92
2020-03-23 05:00:00 6.5 4 Nordeste 6 Nordeste 0 -- -- 92
2020-03-23 04:00:00 6.6 4 Este 9 Este 0 -- -- 89
2020-03-23 03:00:00 6.4 2 Sudeste 6 Nordeste 0 -- -- 89
2020-03-23 02:00:00 7.2 5 Este 8 Nordeste 0 -- -- 90
2020-03-23 01:00:00 7.5 6 Este 14 Sudeste 0 -- -- 86
2020-03-23 00:00:00 7.5 8 Sudeste 13 Sudeste 0 -- -- 89
2020-03-22 23:00:00 8.4 0 Calma 4 Este 0 -- -- 87
2020-03-22 22:00:00 8.6 3 Este 10 Sudeste 0 -- -- 84
2020-03-22 21:00:00 8.6 9 Sudeste 12 Sudeste 0 -- -- 89
2020-03-22 20:00:00 9.2 5 Sudeste 12 Sur 0.4 -- -- 86
2020-03-22 19:00:00 9.9 9 Sudeste 19 Sudeste 13.2 -- -- 83
2020-03-22 18:00:00 11.2 12 Sur 17 Sur 0 -- -- 74
2020-03-22 17:00:00 12.5 8 Oeste 22 Oeste 0 -- -- 66
2020-03-22 16:00:00 11.4 15 Oeste 26 Oeste 0 -- -- 70
2020-03-22 15:00:00 12.3 9 Oeste 24 Oeste 0 -- -- 72
2020-03-22 14:00:00 11.6 12 Noroeste 24 Oeste 0 -- -- 70
2020-03-22 13:00:00 11.3 4 Oeste 18 Sudoeste 0 -- -- 77
2020-03-22 12:00:00 10 3 Noroeste 11 Norte 0 -- -- 74
2020-03-22 11:00:00 9.9 5 Norte 11 Norte 0 -- -- 79
2020-03-22 10:00:00 9.3 3 Nordeste 6 Nordeste 0 -- -- 84
2020-03-22 09:00:00 7.7 2 Nordeste 5 Este 0 -- -- 92
2020-03-22 08:00:00 7 2 Este 5 Nordeste 0 -- -- 92
2020-03-22 07:00:00 7.1 5 Nordeste 9 Nordeste 0 -- -- 94
2020-03-22 06:00:00 7.3 4 Este 10 Sudeste 0.2 -- -- 94
2020-03-22 05:00:00 7.3 8 Sudeste 14 Sur 0.6 -- -- 92
2020-03-22 04:00:00 7.6 4 Sudeste 6 Este 0.2 -- -- 92
2020-03-22 03:00:00 7.5 4 Nordeste 7 Sudeste 0 -- -- 91
2020-03-22 02:00:00 7.4 4 Este 11 Sudeste 0 -- -- 91
2020-03-22 01:00:00 7.1 6 Nordeste 9 Este 0 -- -- 92
2020-03-22 00:00:00 7.2 7 Este 10 Este 0 -- -- 92
2020-03-21 23:00:00 7.2 8 Este 12 Este 0 -- -- 93
2020-03-21 22:00:00 7.3 9 Sur 28 Sur 0.2 -- -- 92
2020-03-21 21:00:00 7.4 20 Sur 29 Sur 1 -- -- 91
2020-03-21 20:00:00 7.5 20 Sudoeste 38 Sudoeste 3.4 -- -- 85
2020-03-21 19:00:00 9.1 13 Sudeste 24 Sudeste 0 -- -- 88
2020-03-21 18:00:00 9.2 15 Sudeste 22 Sur 0.6 -- -- 90
2020-03-21 17:00:00 9.3 6 Sur 22 Sur 1 -- -- 92
2020-03-21 16:00:00 8.8 16 Sur 35 Sur 3.6 -- -- 90
2020-03-21 15:00:00 12.4 23 Sur 34 Sur 0 -- -- 68
2020-03-21 14:00:00 12.9 9 Sudoeste 23 Sur 0 -- -- 65
2020-03-21 13:00:00 12.6 12 Sudoeste 22 Sur 0 -- -- 65
2020-03-21 12:00:00 12.1 13 Sur 22 Sudoeste 0 -- -- 68
2020-03-21 11:00:00 10.4 12 Sudoeste 22 Sudoeste 0 -- -- 78
2020-03-21 10:00:00 9.9 12 Sur 17 Sur 0 -- -- 84
2020-03-21 09:00:00 8.3 3 Nordeste 10 Sur 0 -- -- 94
2020-03-21 08:00:00 7.6 2 Sudoeste 9 Sur 0 -- -- 94
2020-03-21 07:00:00 7.6 4 Sudeste 9 Este 0 -- -- 93
2020-03-21 06:00:00 7.9 9 Este 14 Este 4.2 -- -- 93
2020-03-21 05:00:00 8 13 Oeste 36 Oeste 6.2 -- -- 92
2020-03-21 04:00:00 8.9 24 Sudoeste 50 Sudoeste 3.6 -- -- 88
2020-03-21 03:00:00 13.1 19 Sur 28 Sur 0 -- -- 59
2020-03-21 02:00:00 13.1 16 Sudeste 31 Este 0 -- -- 59
2020-03-21 01:00:00 12.7 11 Sudeste 33 Sudeste 0 -- -- 62
2020-03-21 00:00:00 12.9 22 Sudeste 41 Sudeste 0 -- -- 63
2020-03-20 23:00:00 12.8 26 Sudeste 42 Sudeste 0 -- -- 65
2020-03-20 22:00:00 12.6 24 Sudeste 45 Sur 0 -- -- 67
2020-03-20 21:00:00 12.7 23 Sudeste 46 Sudeste 0 -- -- 67
2020-03-20 20:00:00 13.3 27 Sur 45 Sur 0 -- -- 64
2020-03-20 19:00:00 15.8 19 Sur 29 Sur 0 -- -- 47
2020-03-20 18:00:00 16.9 19 Sur 31 Sur 0 -- -- 41
2020-03-20 17:00:00 17.8 17 Sur 28 Sur 0 -- -- 42
2020-03-20 16:00:00 18.5 11 Sur 23 Sur 0 -- -- 41
2020-03-20 15:00:00 16.8 17 Sur 31 Sudeste 0 -- -- 46
2020-03-20 14:00:00 16.1 13 Sudeste 24 Sudeste 0 -- -- 47
2020-03-20 13:00:00 15.9 9 Sur 23 Sudeste 0 -- -- 50
2020-03-20 12:00:00 14.8 15 Sur 28 Sudeste 0 -- -- 56
2020-03-20 11:00:00 14.3 13 Sudeste 23 Sudeste 0 -- -- 59
2020-03-20 10:00:00 13.3 12 Sudeste 24 Sudeste 0 -- -- 62
2020-03-20 09:00:00 11 5 Este 13 Este 0 -- -- 64
2020-03-20 08:00:00 9.6 6 Este 12 Este 0 -- -- 72
2020-03-20 07:00:00 9.7 8 Sudeste 14 Este 0 -- -- 66
2020-03-20 06:00:00 10.1 9 Sudeste 13 Sudeste 0 -- -- 70
2020-03-20 05:00:00 10.9 3 Sur 6 Sur 0 -- -- 82
2020-03-20 04:00:00 11.2 4 Sudeste 6 Sudeste 0 -- -- 84
2020-03-20 03:00:00 10.8 2 Sur 11 Sur 0 -- -- 85
2020-03-20 02:00:00 11.5 6 Sur 24 Sur 0 -- -- 75
2020-03-20 01:00:00 12.2 16 Sudeste 30 Sudeste 0 -- -- 74
2020-03-20 00:00:00 12 14 Sudeste 23 Sudeste 0 -- -- 73
2020-03-19 23:00:00 12 14 Sudeste 26 Sudeste 0 -- -- 71
2020-03-19 22:00:00 12.3 16 Sur 23 Sur 0 -- -- 69
2020-03-19 21:00:00 12.5 13 Sur 23 Sur 0 -- -- 68
2020-03-19 20:00:00 12.8 15 Sur 28 Sur 0 -- -- 66
2020-03-19 19:00:00 13.9 18 Sur 34 Sur 0 -- -- 62
2020-03-19 18:00:00 15.1 27 Sur 37 Sur 0 -- -- 58
2020-03-19 17:00:00 16.1 27 Sur 37 Sur 0 -- -- 54
2020-03-19 16:00:00 17 24 Sur 36 Sur 0 -- -- 50
2020-03-19 15:00:00 17.5 25 Sur 35 Sur 0 -- -- 48
2020-03-19 14:00:00 17.2 18 Sur 30 Sur 0 -- -- 49
2020-03-19 13:00:00 16.9 15 Sur 28 Sur 0 -- -- 49
2020-03-19 12:00:00 16.6 13 Sudeste 21 Sur 0 -- -- 51
2020-03-19 11:00:00 15.8 9 Nordeste 18 Este 0 -- -- 46
2020-03-19 10:00:00 12.9 8 Este 14 Este 0 -- -- 57
2020-03-19 09:00:00 10.4 6 Este 12 Este 0 -- -- 65
2020-03-19 08:00:00 10.2 8 Este 12 Sudeste 0 -- -- 66
2020-03-19 07:00:00 10.4 6 Este 12 Este 0 -- -- 70
2020-03-19 06:00:00 11 3 Este 5 Este 0 -- -- 75
2020-03-19 05:00:00 11.3 0 Calma 11 Sur 0 -- -- 75
2020-03-19 04:00:00 11.8 10 Sudeste 18 Sudeste 0 -- -- 72
2020-03-19 03:00:00 11.9 9 Sudeste 25 Sudeste 0 -- -- 71
2020-03-19 02:00:00 12.2 17 Sudeste 27 Sudeste 0 -- -- 71
2020-03-19 01:00:00 12.3 17 Sudeste 30 Sur 0 -- -- 71
2020-03-19 00:00:00 12.1 22 Sur 31 Sudeste 0 -- -- 73
2020-03-18 23:00:00 11.6 16 Sur 22 Sur 0 -- -- 74
2020-03-18 22:00:00 12.4 12 Sur 18 Sur 0 -- -- 68
2020-03-18 21:00:00 13.1 10 Sur 19 Sur 0 -- -- 62
2020-03-18 20:00:00 14.7 17 Sur 26 Sur 0 -- -- 55
2020-03-18 19:00:00 16.4 19 Sudoeste 31 Sudoeste 0 -- -- 50
2020-03-18 18:00:00 19.5 19 Sur 31 Sur 0 -- -- 40
2020-03-18 17:00:00 20.5 24 Sur 35 Sudoeste 0 -- -- 38
2020-03-18 16:00:00 20.7 24 Sur 35 Sur 0 -- -- 38
2020-03-18 15:00:00 20.6 17 Sur 27 Sur 0 -- -- 41
2020-03-18 14:00:00 20.4 15 Sur 25 Sur 0 -- -- 40
2020-03-18 13:00:00 20.1 14 Sudoeste 30 Sudoeste 0 -- -- 41
2020-03-18 12:00:00 19.9 5 Sudeste 22 Este 0 -- -- 34
2020-03-18 11:00:00 18.1 10 Este 19 Nordeste 0 -- -- 39
2020-03-18 10:00:00 16.4 7 Este 23 Nordeste 0 -- -- 44
2020-03-18 09:00:00 14.4 9 Este 23 Este 0 -- -- 52
2020-03-18 08:00:00 10.9 8 Sudeste 17 Nordeste 0 -- -- 72
2020-03-18 07:00:00 13.1 7 Este 28 Este 0 -- -- 55
2020-03-18 06:00:00 11.7 8 Este 19 Nordeste 0 -- -- 63
2020-03-18 05:00:00 10.5 11 Nordeste 19 Nordeste 0 -- -- 69
2020-03-18 04:00:00 9.5 5 Norte 6 Norte 0 -- -- 73
2020-03-18 03:00:00 9.8 5 Nordeste 13 Sur 0 -- -- 69
2020-03-18 02:00:00 9.9 12 Sur 17 Sur 0 -- -- 70
2020-03-18 01:00:00 9.4 6 Sur 27 Sur 0 -- -- 69
2020-03-18 00:00:00 10.3 12 Sur 22 Este 0 -- -- 62
2020-03-17 23:00:00 10.6 5 Este 10 Este 0 -- -- 61
2020-03-17 22:00:00 11.2 3 Sudeste 5 Este 0 -- -- 55
2020-03-17 21:00:00 11.4 2 Noroeste 5 Oeste 0 -- -- 54
2020-03-17 20:00:00 12.3 4 Oeste 9 Oeste 0 -- -- 53
2020-03-17 19:00:00 13.6 4 Norte 5 Norte 0 -- -- 47
2020-03-17 18:00:00 14.2 4 Nordeste 18 Nordeste 0.2 -- -- 45
2020-03-17 17:00:00 15.4 8 Sur 17 Sur 0 -- -- 33
2020-03-17 16:00:00 14.8 3 Norte 26 Sur 0 -- -- 33
2020-03-17 15:00:00 16.1 10 Sudeste 30 Sudeste 0 -- -- 28
2020-03-17 14:00:00 14.9 17 Sudeste 39 Sudeste 0 -- -- 30
2020-03-17 13:00:00 14.1 9 Sudeste 26 Sudeste 0 -- -- 33
2020-03-17 12:00:00 12.4 12 Sur 18 Sur 0 -- -- 46
2020-03-17 11:00:00 10.5 3 Este 11 Norte 0 -- -- 66
2020-03-17 10:00:00 7.3 4 Sudoeste 10 Nordeste 0 -- -- 89
2020-03-17 09:00:00 6.8 4 Sudoeste 8 Oeste 0 -- -- 89
2020-03-17 08:00:00 6.1 2 Oeste 5 Oeste 0 -- -- 91
2020-03-17 07:00:00 5.8 2 Noroeste 6 Oeste 0 -- -- 90
2020-03-17 06:00:00 5.9 3 Noroeste 5 Nordeste 0.2 -- -- 83
2020-03-17 05:00:00 6.5 4 Nordeste 6 Nordeste 0 -- -- 85
2020-03-17 04:00:00 6.5 0 Calma 8 Nordeste 0 -- -- 81
2020-03-17 03:00:00 6.3 5 Este 9 Este 0 -- -- 83
2020-03-17 02:00:00 6.2 2 Nordeste 9 Sur 0 -- -- 84
2020-03-17 01:00:00 6.2 6 Sur 12 Sudeste 0 -- -- 83
2020-03-17 00:00:00 6.2 6 Sur 13 Sudoeste 0 -- -- 80
2020-03-16 23:00:00 7 12 Sudoeste 19 Sudoeste 0.2 -- -- 73
2020-03-16 22:00:00 8 8 Sudoeste 11 Sudoeste 0 -- -- 55
2020-03-16 21:00:00 8.1 0 Calma 6 Noroeste 0 -- -- 52
2020-03-16 20:00:00 8.3 7 Noroeste 24 Noroeste 0 -- -- 53
2020-03-16 19:00:00 9.6 9 Noroeste 20 Oeste 0 -- -- 41
2020-03-16 18:00:00 10.3 13 Oeste 24 Oeste 0 -- -- 37
2020-03-16 17:00:00 10.5 13 Oeste 27 Noroeste 0 -- -- 37
2020-03-16 16:00:00 10.9 15 Noroeste 33 Oeste 0 -- -- 34
2020-03-16 15:00:00 11.1 19 Noroeste 37 Sudoeste 0 -- -- 34
2020-03-16 14:00:00 12 19 Oeste 39 Oeste 0 -- -- 32
2020-03-16 13:00:00 12 17 Oeste 31 Oeste 0 -- -- 31
2020-03-16 12:00:00 10.8 9 Oeste 22 Noroeste 0 -- -- 35
2020-03-16 11:00:00 9.9 10 Oeste 19 Oeste 0 -- -- 42
2020-03-16 10:00:00 8.2 12 Noroeste 20 Norte 0 -- -- 47
2020-03-16 09:00:00 6.7 8 Noroeste 14 Norte 0 -- -- 57
2020-03-16 08:00:00 6.7 6 Noroeste 19 Oeste 0 -- -- 62
2020-03-16 07:00:00 6.9 10 Oeste 18 Noroeste 0.2 -- -- 65
2020-03-16 06:00:00 7.9 11 Oeste 26 Oeste 0 -- -- 68
2020-03-16 05:00:00 8.9 13 Noroeste 48 Sudoeste 0 -- -- 69
2020-03-16 04:00:00 11.8 18 Sur 22 Sur 0 -- -- 81
2020-03-16 03:00:00 12.7 12 Sur 17 Sudoeste 0 -- -- 76
2020-03-16 02:00:00 12.7 9 Sudoeste 19 Oeste 0 -- -- 76
2020-03-16 01:00:00 13.2 12 Oeste 18 Oeste 0 -- -- 74
2020-03-16 00:00:00 13 7 Sudoeste 12 Sur 0 -- -- 67
2020-03-15 23:00:00 13.7 8 Sur 14 Oeste 0 -- -- 63
2020-03-15 22:00:00 13.3 5 Sur 19 Sur 0 -- -- 64
2020-03-15 21:00:00 13.5 12 Sur 20 Sur 0 -- -- 63
2020-03-15 20:00:00 15.3 9 Sur 14 Sur 0 -- -- 58
2020-03-15 19:00:00 18.2 9 Sur 14 Sur 0 -- -- 47
2020-03-15 18:00:00 18.9 6 Sudoeste 13 Sur 0 -- -- 41
2020-03-15 17:00:00 20 5 Nordeste 11 Sudeste 0 -- -- 37
2020-03-15 16:00:00 20.3 5 Sudeste 19 Sur 0 -- -- 38
2020-03-15 15:00:00 17.1 11 Sur 24 Sudoeste 0 -- -- 53
2020-03-15 14:00:00 16.7 12 Sudoeste 26 Sudoeste 0 -- -- 55
2020-03-15 13:00:00 17 16 Sur 25 Sur 0 -- -- 52
2020-03-15 12:00:00 16.9 11 Sur 17 Sur 0 -- -- 51
2020-03-15 11:00:00 15.3 9 Sudoeste 13 Sudoeste 0 -- -- 59
2020-03-15 10:00:00 14 6 Sur 17 Sudeste 0 -- -- 68
2020-03-15 09:00:00 11.5 9 Sur 12 Sur 0 -- -- 82
2020-03-15 08:00:00 10.5 6 Sur 9 Sudeste 0 -- -- 83
2020-03-15 07:00:00 10.7 5 Sur 7 Sur 0 -- -- 81
2020-03-15 06:00:00 11 4 Este 21 Sur 0 -- -- 80
2020-03-15 05:00:00 10.7 17 Sur 23 Sur 0 -- -- 84
2020-03-15 04:00:00 10.6 13 Sur 20 Sur 0 -- -- 80
2020-03-15 03:00:00 11.4 7 Sur 12 Sur 0 -- -- 75
2020-03-15 02:00:00 11.5 11 Sur 16 Sur 0 -- -- 74
2020-03-15 01:00:00 12.2 12 Sur 17 Sur 0 -- -- 71
2020-03-15 00:00:00 12.7 15 Sur 21 Sur 0 -- -- 67
2020-03-14 23:00:00 13.5 12 Sur 17 Sur 0 -- -- 63
2020-03-14 22:00:00 14.5 4 Sur 13 Sur 0 -- -- 59
2020-03-14 21:00:00 15.4 9 Sur 13 Sur 0 -- -- 55
2020-03-14 20:00:00 18 7 Oeste 13 Noroeste 0 -- -- 49
2020-03-14 19:00:00 20.7 7 Oeste 13 Oeste 0 -- -- 41
2020-03-14 18:00:00 21.9 6 Noroeste 14 Noroeste 0 -- -- 38
2020-03-14 17:00:00 22.4 8 Noroeste 19 Oeste 0 -- -- 37
2020-03-14 16:00:00 22 13 Noroeste 21 Noroeste 0 -- -- 39
2020-03-14 15:00:00 22.1 5 Norte 19 Norte 0 -- -- 39
2020-03-14 14:00:00 21.2 6 Noroeste 17 Oeste 0 -- -- 43
2020-03-14 13:00:00 20.4 5 Norte 13 Noroeste 0 -- -- 43
2020-03-14 12:00:00 18.7 6 Noroeste 13 Oeste 0 -- -- 51
2020-03-14 11:00:00 17.4 2 Sur 8 Sur 0 -- -- 58
2020-03-14 10:00:00 14 2 Oeste 8 Sur 0 -- -- 68
2020-03-14 09:00:00 11.5 5 Sur 14 Sur 0 -- -- 82
2020-03-14 08:00:00 10.1 6 Este 7 Este 0 -- -- 88
2020-03-14 07:00:00 10.7 0 Calma 7 Nordeste 0 -- -- 87
2020-03-14 06:00:00 10.7 6 Nordeste 8 Este 0 -- -- 79
2020-03-14 05:00:00 10.9 4 Sudeste 12 Sur 0 -- -- 71
2020-03-14 04:00:00 11.3 8 Sur 13 Sudeste 0 -- -- 72
2020-03-14 03:00:00 12 4 Sur 6 Sudeste 0 -- -- 74
2020-03-14 02:00:00 13.9 3 Este 6 Este 0 -- -- 72
2020-03-14 01:00:00 14 4 Este 6 Este 0 -- -- 70
2020-03-14 00:00:00 14.5 0 Calma 8 Norte 0 -- -- 68
2020-03-13 23:00:00 15.1 6 Noroeste 13 Noroeste 0 -- -- 63
2020-03-13 22:00:00 16.7 2 Nordeste 6 Nordeste 0 -- -- 51
2020-03-13 21:00:00 17.1 3 Norte 5 Noroeste 0 -- -- 49
2020-03-13 20:00:00 17.6 5 Oeste 13 Noroeste 0 -- -- 47
2020-03-13 19:00:00 19.4 8 Noroeste 19 Noroeste 0 -- -- 40
2020-03-13 18:00:00 20.7 9 Noroeste 23 Noroeste 0 -- -- 35
2020-03-13 17:00:00 20.8 12 Noroeste 21 Noroeste 0 -- -- 36
2020-03-13 16:00:00 21.1 9 Noroeste 18 Oeste 0 -- -- 36
2020-03-13 15:00:00 20.6 10 Noroeste 18 Oeste 0 -- -- 37
2020-03-13 14:00:00 18.9 9 Noroeste 18 Noroeste 0 -- -- 43
2020-03-13 13:00:00 17.9 9 Noroeste 17 Oeste 0 -- -- 51
2020-03-13 12:00:00 16.2 9 Noroeste 16 Noroeste 0 -- -- 58
2020-03-13 11:00:00 15.5 8 Oeste 16 Oeste 0 -- -- 60
2020-03-13 10:00:00 13.6 5 Noroeste 9 Noroeste 0 -- -- 63
2020-03-13 09:00:00 11.6 3 Nordeste 14 Este 0 -- -- 73
2020-03-13 08:00:00 10.9 9 Nordeste 12 Nordeste 0 -- -- 78
2020-03-13 07:00:00 10.9 4 Nordeste 9 Este 0 -- -- 71
2020-03-13 06:00:00 11.8 3 Nordeste 8 Nordeste 0 -- -- 64
2020-03-13 05:00:00 12.6 3 Este 10 Este 0 -- -- 55
2020-03-13 04:00:00 13.6 7 Nordeste 10 Nordeste 0 -- -- 52
2020-03-13 03:00:00 15.2 3 Este 10 Sudeste 0 -- -- 46
2020-03-13 02:00:00 15.7 3 Este 7 Nordeste 0 -- -- 49
2020-03-13 01:00:00 15.7 5 Este 11 Este 0 -- -- 54
2020-03-13 00:00:00 15.8 4 Este 9 Nordeste 0 -- -- 58
2020-03-12 23:00:00 16.4 5 Norte 9 Norte 0 -- -- 56
2020-03-12 22:00:00 17.4 4 Norte 18 Noroeste 0 -- -- 56
2020-03-12 21:00:00 18.5 12 Noroeste 22 Noroeste 0 -- -- 51
2020-03-12 20:00:00 20.5 8 Noroeste 19 Noroeste 0 -- -- 39
2020-03-12 19:00:00 22.6 12 Noroeste 22 Noroeste 0 -- -- 34
2020-03-12 18:00:00 24.9 15 Noroeste 24 Noroeste 0 -- -- 28
2020-03-12 17:00:00 26.5 15 Noroeste 25 Noroeste 0 -- -- 23
2020-03-12 16:00:00 28.5 12 Oeste 30 Oeste 0 -- -- 13
2020-03-12 15:00:00 28 12 Sudoeste 23 Sur 0 -- -- 15
2020-03-12 14:00:00 27.4 6 Sur 21 Sudoeste 0 -- -- 17
2020-03-12 13:00:00 26.9 10 Sur 19 Sur 0 -- -- 16
2020-03-12 12:00:00 23.8 5 Norte 10 Norte 0 -- -- 23
2020-03-12 11:00:00 20.7 5 Nordeste 12 Nordeste 0 -- -- 29
2020-03-12 10:00:00 17 8 Este 15 Este 0 -- -- 35
2020-03-12 09:00:00 16.6 8 Este 15 Sudeste 0 -- -- 34
2020-03-12 08:00:00 14.5 6 Nordeste 9 Sudeste 0 -- -- 36
2020-03-12 07:00:00 14.4 4 Nordeste 16 Sudeste 0 -- -- 34
2020-03-12 06:00:00 17.3 7 Sudeste 17 Sudeste 0 -- -- 28
2020-03-12 05:00:00 16.2 7 Sudeste 12 Sur 0 -- -- 30
2020-03-12 04:00:00 15.7 9 Sur 19 Este 0 -- -- 32
2020-03-12 03:00:00 17.9 14 Sudeste 18 Sudeste 0 -- -- 23
2020-03-12 02:00:00 18.2 9 Nordeste 14 Nordeste 0 -- -- 25
2020-03-12 01:00:00 18.7 10 Nordeste 14 Este 0 -- -- 27
2020-03-12 00:00:00 18.4 12 Este 14 Este 0 -- -- 30
2020-03-11 23:00:00 19.4 9 Nordeste 10 Nordeste 0 -- -- 25
2020-03-11 22:00:00 20.8 8 Nordeste 15 Este 0 -- -- 20
2020-03-11 21:00:00 22.2 5 Este 10 Nordeste 0 -- -- 17
2020-03-11 20:00:00 22.9 3 Sur 15 Sur 0 -- -- 17
2020-03-11 19:00:00 25.2 12 Sur 23 Sur 0 -- -- 14
2020-03-11 18:00:00 26.1 12 Sur 30 Sur 0 -- -- 15
2020-03-11 17:00:00 26.7 20 Sur 31 Sur 0 -- -- 15
2020-03-11 16:00:00 27.7 19 Sur 33 Sur 0 -- -- 15
2020-03-11 15:00:00 28.2 19 Sur 37 Sur 0 -- -- 15
2020-03-11 14:00:00 28.1 18 Sur 36 Sur 0 -- -- 16
2020-03-11 13:00:00 27 19 Sur 31 Sur 0 -- -- 19
2020-03-11 12:00:00 24.4 4 Nordeste 12 Nordeste 0 -- -- 25
2020-03-11 11:00:00 21.8 8 Nordeste 15 Nordeste 0 -- -- 29
2020-03-11 10:00:00 17.8 10 Nordeste 19 Nordeste 0 -- -- 37
2020-03-11 09:00:00 15 8 Este 14 Nordeste 0 -- -- 44
2020-03-11 08:00:00 12.7 8 Nordeste 14 Nordeste 0 -- -- 50
2020-03-11 07:00:00 11.3 7 Este 13 Nordeste 0 -- -- 52
2020-03-11 06:00:00 11.3 6 Sur 17 Sudeste 0 -- -- 50
2020-03-11 05:00:00 11 10 Sur 13 Sur 0 -- -- 49
2020-03-11 04:00:00 12 6 Este 15 Este 0 -- -- 53
2020-03-11 03:00:00 11.8 8 Este 23 Sur 0 -- -- 48
2020-03-11 02:00:00 12.6 18 Sur 23 Sur 0 -- -- 41
2020-03-11 01:00:00 12.7 15 Sur 23 Sur 0 -- -- 42
2020-03-11 00:00:00 13.7 8 Sudeste 25 Sur 0 -- -- 40
2020-03-10 23:00:00 14.2 17 Sur 23 Sur 0 -- -- 38
2020-03-10 22:00:00 14.6 14 Sur 21 Sur 0 -- -- 38
2020-03-10 21:00:00 15.6 12 Sur 20 Sur 0 -- -- 37
2020-03-10 20:00:00 17.3 13 Sur 18 Sur 0 -- -- 34
2020-03-10 19:00:00 20.7 13 Sur 23 Sur 0 -- -- 27
2020-03-10 18:00:00 23 14 Sur 24 Sudoeste 0 -- -- 21
2020-03-10 17:00:00 23.9 15 Sudoeste 26 Sudoeste 0 -- -- 20
2020-03-10 16:00:00 24 15 Sudoeste 28 Sudoeste 0 -- -- 20
2020-03-10 15:00:00 24.6 10 Noroeste 23 Oeste 0 -- -- 20
2020-03-10 14:00:00 24.3 9 Oeste 19 Oeste 0 -- -- 19
2020-03-10 13:00:00 23.5 9 Sudoeste 18 Oeste 0 -- -- 19
2020-03-10 12:00:00 21.2 5 Noroeste 10 Norte 0 -- -- 23
2020-03-10 11:00:00 18.7 5 Norte 9 Este 0 -- -- 30
2020-03-10 10:00:00 14.9 6 Nordeste 10 Nordeste 0 -- -- 36
2020-03-10 09:00:00 11.8 0 Calma 7 Este 0 -- -- 49
2020-03-10 08:00:00 10.8 4 Nordeste 12 Sur 0 -- -- 49
2020-03-10 07:00:00 9.6 4 Sur 10 Sur 0 -- -- 53
2020-03-10 06:00:00 10.2 4 Sudeste 9 Sudeste 0 -- -- 50
2020-03-10 05:00:00 9.5 6 Nordeste 14 Nordeste 0 -- -- 56
2020-03-10 04:00:00 9.5 7 Nordeste 10 Nordeste 0 -- -- 56
2020-03-10 03:00:00 10.3 8 Este 13 Este 0 -- -- 53
2020-03-10 02:00:00 11.2 8 Nordeste 10 Nordeste 0 -- -- 49
2020-03-10 01:00:00 12 3 Noroeste 6 Sur 0 -- -- 45
2020-03-10 00:00:00 12.6 6 Sur 10 Sur 0 -- -- 44
2020-03-09 23:00:00 13.9 2 Sur 5 Sur 0 -- -- 39
2020-03-09 22:00:00 14.5 0 Calma 5 Noroeste 0 -- -- 38
2020-03-09 21:00:00 15.3 3 Noroeste 10 Noroeste 0 -- -- 37
2020-03-09 20:00:00 16 7 Norte 17 Noroeste 0 -- -- 35
2020-03-09 19:00:00 18 12 Noroeste 26 Noroeste 0 -- -- 28
2020-03-09 18:00:00 19.6 14 Noroeste 25 Noroeste 0 -- -- 22
2020-03-09 17:00:00 19.9 15 Noroeste 26 Noroeste 0 -- -- 21
2020-03-09 16:00:00 19.8 14 Noroeste 24 Noroeste 0 -- -- 22
2020-03-09 15:00:00 19.7 13 Noroeste 22 Noroeste 0 -- -- 26
2020-03-09 14:00:00 18.9 12 Noroeste 23 Noroeste 0 -- -- 28
2020-03-09 13:00:00 18.1 8 Oeste 14 Oeste 0 -- -- 32
2020-03-09 12:00:00 16.8 4 Sudoeste 12 Noroeste 0 -- -- 34
2020-03-09 11:00:00 14.5 8 Noroeste 13 Noroeste 0 -- -- 43
2020-03-09 10:00:00 12.9 0 Calma 10 Sur 0 -- -- 47
2020-03-09 09:00:00 9.4 8 Sur 11 Sur 0 -- -- 52
2020-03-09 08:00:00 7.6 5 Oeste 6 Oeste 0 -- -- 56
2020-03-09 07:00:00 7.5 0 Calma 6 Sur 0 -- -- 56
2020-03-09 06:00:00 8.9 0 Calma 6 Sur 0 -- -- 49
2020-03-09 05:00:00 9.5 0 Calma 5 Noroeste 0 -- -- 46
2020-03-09 04:00:00 9.9 5 Noroeste 8 Noroeste 0 -- -- 44
2020-03-09 03:00:00 11 3 Oeste 5 Oeste 0 -- -- 40
2020-03-09 02:00:00 11.6 4 Oeste 10 Oeste 0 -- -- 37
2020-03-09 01:00:00 12.9 4 Noroeste 8 Este 0 -- -- 33
2020-03-09 00:00:00 13.2 6 Nordeste 8 Nordeste 0 -- -- 33
2020-03-08 23:00:00 13.3 0 Calma 9 Nordeste 0 -- -- 33
2020-03-08 22:00:00 15.2 3 Norte 6 Noroeste 0 -- -- 27
2020-03-08 21:00:00 16 3 Oeste 9 Oeste 0 -- -- 25
2020-03-08 20:00:00 16.4 6 Noroeste 14 Oeste 0 -- -- 23
2020-03-08 19:00:00 18.2 8 Noroeste 21 Noroeste 0 -- -- 20
2020-03-08 18:00:00 20.8 11 Noroeste 19 Noroeste 0 -- -- 14
2020-03-08 17:00:00 21.6 11 Noroeste 22 Oeste 0 -- -- 12
2020-03-08 16:00:00 21.6 12 Noroeste 22 Oeste 0 -- -- 13
2020-03-08 15:00:00 21.4 6 Noroeste 14 Oeste 0 -- -- 14
2020-03-08 14:00:00 20.8 8 Oeste 14 Oeste 0 -- -- 19
2020-03-08 13:00:00 19.1 3 Nordeste 13 Este 0 -- -- 21
2020-03-08 12:00:00 17.3 5 Este 9 Este 0 -- -- 27
2020-03-08 11:00:00 14 5 Norte 9 Nordeste 0 -- -- 37
2020-03-08 10:00:00 11.1 7 Nordeste 13 Nordeste 0 -- -- 44
2020-03-08 09:00:00 7.6 2 Nordeste 14 Nordeste 0 -- -- 56
2020-03-08 08:00:00 6 13 Este 15 Este 0 -- -- 62
2020-03-08 07:00:00 5.7 10 Nordeste 13 Nordeste 0 -- -- 63
2020-03-08 06:00:00 6.6 2 Sur 13 Este 0 -- -- 51
2020-03-08 05:00:00 7 2 Sudeste 11 Sudeste 0 -- -- 50
2020-03-08 04:00:00 8 6 Sudeste 10 Sudeste 0 -- -- 48
2020-03-08 03:00:00 9 0 Calma 6 Nordeste 0 -- -- 44
2020-03-08 02:00:00 9.5 6 Nordeste 10 Nordeste 0 -- -- 43
2020-03-08 01:00:00 10 5 Nordeste 9 Nordeste 0 -- -- 42
2020-03-08 00:00:00 10.5 3 Nordeste 11 Nordeste 0 -- -- 38
2020-03-07 23:00:00 11.5 3 Este 18 Nordeste 0 -- -- 34
2020-03-07 22:00:00 12.2 6 Nordeste 18 Nordeste 0 -- -- 33
2020-03-07 21:00:00 12.7 6 Nordeste 19 Nordeste 0 -- -- 31
2020-03-07 20:00:00 13.6 12 Nordeste 19 Nordeste 0 -- -- 29
2020-03-07 19:00:00 15 10 Norte 28 Norte 0 -- -- 26
2020-03-07 18:00:00 16.4 16 Norte 31 Noroeste 0 -- -- 23
2020-03-07 17:00:00 17.3 17 Norte 28 Noroeste 0 -- -- 22
2020-03-07 16:00:00 17.7 9 Nordeste 23 Noroeste 0 -- -- 21
2020-03-07 15:00:00 17.2 11 Nordeste 22 Nordeste 0 -- -- 21
2020-03-07 14:00:00 16.9 12 Nordeste 26 Nordeste 0 -- -- 21
2020-03-07 13:00:00 16.2 14 Norte 27 Norte 0 -- -- 22
2020-03-07 12:00:00 14.8 10 Nordeste 20 Nordeste 0 -- -- 23
2020-03-07 11:00:00 12.8 10 Nordeste 16 Nordeste 0 -- -- 29
2020-03-07 10:00:00 9.5 4 Nordeste 6 Nordeste 0 -- -- 51
2020-03-07 09:00:00 5.3 0 Calma 8 Nordeste 0 -- -- 66
2020-03-07 08:00:00 4.8 4 Este 9 Este 0 -- -- 67
2020-03-07 07:00:00 5.4 4 Este 9 Este 0 -- -- 66
2020-03-07 06:00:00 4.9 4 Nordeste 8 Este 0 -- -- 63
2020-03-07 05:00:00 6.1 3 Sudeste 11 Este 0 -- -- 57
2020-03-07 04:00:00 5.4 6 Nordeste 12 Nordeste 0 -- -- 60
2020-03-07 03:00:00 7.2 3 Sudoeste 9 Sur 0 -- -- 51
2020-03-07 02:00:00 7.7 5 Sur 8 Sur 0 -- -- 50
2020-03-07 01:00:00 8.4 0 Calma 5 Oeste 0 -- -- 47
2020-03-07 00:00:00 8.6 2 Oeste 6 Nordeste 0 -- -- 46
2020-03-06 23:00:00 9.8 3 Norte 19 Norte 0 -- -- 44
2020-03-06 22:00:00 10.6 6 Norte 22 Norte 0 -- -- 43
2020-03-06 21:00:00 11.8 15 Norte 24 Norte 0 -- -- 39
2020-03-06 20:00:00 12.7 15 Noroeste 29 Noroeste 0 -- -- 37
2020-03-06 19:00:00 13.9 18 Noroeste 34 Noroeste 0 -- -- 33
2020-03-06 18:00:00 15 23 Noroeste 41 Noroeste 0 -- -- 31
2020-03-06 17:00:00 15.6 17 Noroeste 40 Noroeste 0 -- -- 33
2020-03-06 16:00:00 15.2 17 Noroeste 37 Noroeste 0 -- -- 39
2020-03-06 15:00:00 14.6 18 Noroeste 37 Oeste 0 -- -- 38
2020-03-06 14:00:00 13.7 24 Noroeste 35 Oeste 0 -- -- 49
2020-03-06 13:00:00 13 21 Noroeste 33 Noroeste 0 -- -- 52
2020-03-06 12:00:00 11.4 12 Noroeste 28 Noroeste 0 -- -- 66
2020-03-06 11:00:00 10.5 10 Noroeste 19 Noroeste 0 -- -- 69
2020-03-06 10:00:00 8 3 Noroeste 7 Noroeste 0 -- -- 81
2020-03-06 09:00:00 6.1 6 Nordeste 8 Nordeste 0 -- -- 88
2020-03-06 08:00:00 5.2 5 Nordeste 8 Nordeste 0 -- -- 91
2020-03-06 07:00:00 4.9 4 Norte 11 Norte 0 -- -- 90
2020-03-06 06:00:00 5.3 8 Noroeste 14 Noroeste 0 -- -- 87
2020-03-06 05:00:00 6.1 8 Noroeste 19 Noroeste 0 -- -- 83
2020-03-06 04:00:00 6.7 10 Noroeste 17 Noroeste 0 -- -- 79
2020-03-06 03:00:00 7.3 9 Noroeste 19 Oeste 0 -- -- 77
2020-03-06 02:00:00 8 11 Oeste 19 Oeste 0 -- -- 73
2020-03-06 01:00:00 9.1 12 Noroeste 21 Oeste 0 -- -- 68
2020-03-06 00:00:00 10 10 Oeste 27 Oeste 0 -- -- 65
2020-03-05 23:00:00 10.9 14 Noroeste 24 Noroeste 0 -- -- 61
2020-03-05 22:00:00 12.1 11 Oeste 22 Oeste 0 -- -- 59
2020-03-05 21:00:00 12.8 14 Oeste 27 Oeste 0 -- -- 56
2020-03-05 20:00:00 13.1 14 Oeste 26 Oeste 0 -- -- 58
2020-03-05 19:00:00 14 18 Oeste 33 Oeste 0 -- -- 65
2020-03-05 18:00:00 14.6 20 Oeste 33 Oeste 0 -- -- 64
2020-03-05 17:00:00 14.5 14 Oeste 30 Oeste 0 -- -- 70
2020-03-05 16:00:00 13.3 11 Oeste 36 Oeste 0 -- -- 76
2020-03-05 15:00:00 13.6 22 Oeste 37 Oeste 0 -- -- 72
2020-03-05 14:00:00 13.6 20 Sudoeste 30 Oeste 0 -- -- 72
2020-03-05 13:00:00 14.8 13 Noroeste 30 Oeste 0 -- -- 65
2020-03-05 12:00:00 14.7 9 Oeste 19 Noroeste 0 -- -- 66
2020-03-05 11:00:00 13.9 5 Norte 8 Nordeste 0 -- -- 65
2020-03-05 10:00:00 12.2 3 Este 7 Este 0 -- -- 72
2020-03-05 09:00:00 8.5 4 Este 8 Nordeste 0 -- -- 90
2020-03-05 08:00:00 7.4 4 Este 7 Nordeste 0 -- -- 92
2020-03-05 07:00:00 7.4 4 Nordeste 8 Nordeste 0 -- -- 91
2020-03-05 06:00:00 7.9 3 Nordeste 9 Este 0 -- -- 87
2020-03-05 05:00:00 8.6 7 Este 9 Este 0 -- -- 84
2020-03-05 04:00:00 9.6 6 Nordeste 9 Nordeste 0 -- -- 80
2020-03-05 03:00:00 9.8 0 Calma 6 Nordeste 0 -- -- 76
2020-03-05 02:00:00 11.2 2 Nordeste 4 Oeste 0 -- -- 70
2020-03-05 01:00:00 11.3 0 Calma 10 Noroeste 0 -- -- 69
2020-03-05 00:00:00 12.1 2 Sur 4 Sudoeste 0 -- -- 67
2020-03-04 23:00:00 12.4 2 Oeste 9 Oeste 0 -- -- 65
2020-03-04 22:00:00 13.5 6 Oeste 13 Noroeste 0 -- -- 62
2020-03-04 21:00:00 14.9 0 Calma 8 Noroeste 0 -- -- 58
2020-03-04 20:00:00 15.4 6 Noroeste 16 Noroeste 0 -- -- 56
2020-03-04 19:00:00 16.7 10 Noroeste 21 Oeste 0 -- -- 51
2020-03-04 18:00:00 18.2 13 Noroeste 23 Noroeste 0 -- -- 46
2020-03-04 17:00:00 18.8 13 Noroeste 26 Noroeste 0 -- -- 47
2020-03-04 16:00:00 17.8 16 Norte 25 Norte 0 -- -- 53
2020-03-04 15:00:00 17.7 15 Noroeste 28 Noroeste 0 -- -- 54
2020-03-04 14:00:00 17.4 12 Noroeste 30 Oeste 0 -- -- 57
2020-03-04 13:00:00 16.8 13 Noroeste 21 Noroeste 0 -- -- 58
2020-03-04 12:00:00 16.1 10 Noroeste 18 Noroeste 0 -- -- 61
2020-03-04 11:00:00 14.6 6 Noroeste 15 Noroeste 0 -- -- 77
2020-03-04 10:00:00 13.3 5 Norte 14 Noroeste 0 -- -- 87
2020-03-04 09:00:00 12.1 5 Noroeste 14 Noroeste 0 -- -- 92
2020-03-04 08:00:00 12.2 7 Noroeste 14 Noroeste 0 -- -- 91
2020-03-04 07:00:00 12.4 6 Norte 10 Norte 0 -- -- 89
2020-03-04 06:00:00 12.5 4 Noroeste 9 Norte 0 -- -- 88
2020-03-04 05:00:00 12.6 5 Noroeste 10 Noroeste 0 -- -- 88
2020-03-04 04:00:00 12.3 3 Nordeste 7 Nordeste 0 -- -- 89
2020-03-04 03:00:00 12.5 4 Este 7 Este 0 -- -- 84
2020-03-04 02:00:00 12.6 2 Este 4 Nordeste 0 -- -- 80
2020-03-04 01:00:00 12.6 0 Calma 7 Norte 0 -- -- 75
2020-03-04 00:00:00 12.8 3 Nordeste 6 Nordeste 0 -- -- 72